Time;durP1;ratioP1;P1;durP2;ratioP2;P2;SDS_P1;SDS_P2;PMS_P1;PMS_P2;Temp;Humidity;BMP_temperature;BMP_pressure;BME280_temperature;BME280_humidity;BME280_pressure;Samples;Min_cycle;Max_cycle;Signal;HPM_P1;HPM_P2
2023/12/13 00:01:05;;;;;;;0.30;0.20;;;7.20;99.90;;;;;;5037751;28;20522;-81
2023/12/13 00:03:32;;;;;;;0.30;0.30;;;7.20;99.90;;;;;;5037344;28;20450;-81
2023/12/13 00:05:59;;;;;;;0.50;0.30;;;7.20;99.90;;;;;;5037160;28;20470;-81
2023/12/13 00:08:25;;;;;;;0.30;0.30;;;7.10;99.90;;;;;;5037642;28;20438;-80
2023/12/13 00:10:57;;;;;;;0.30;0.20;;;7.00;99.90;;;;;;5037477;28;20449;-81
2023/12/13 00:13:24;;;;;;;0.30;0.30;;;7.00;99.90;;;;;;5037857;28;20431;-81
2023/12/13 00:15:51;;;;;;;0.40;0.30;;;7.00;99.90;;;;;;5036775;28;20442;-82
2023/12/13 00:18:19;;;;;;;1.33;0.40;;;6.90;99.90;;;;;;5037020;28;20454;-81
2023/12/13 00:20:46;;;;;;;0.30;0.20;;;6.90;99.90;;;;;;5038312;28;20851;-81
2023/12/13 00:23:12;;;;;;;0.30;0.20;;;6.80;99.90;;;;;;5037801;28;20459;-80
2023/12/13 00:25:39;;;;;;;0.90;0.90;;;6.80;99.90;;;;;;5037587;28;20832;-80
2023/12/13 00:28:07;;;;;;;0.40;0.30;;;6.80;99.90;;;;;;5038051;28;20470;-81
2023/12/13 00:30:33;;;;;;;0.40;0.30;;;6.70;99.90;;;;;;5037354;28;20944;-81
2023/12/13 00:33:00;;;;;;;0.30;0.30;;;6.70;99.90;;;;;;5037589;28;20451;-81
2023/12/13 00:35:28;;;;;;;0.77;0.30;;;6.70;99.90;;;;;;5037361;28;20439;-81
2023/12/13 00:37:55;;;;;;;1.80;0.50;;;6.70;99.90;;;;;;5037388;28;20493;-81
2023/12/13 00:40:22;;;;;;;0.30;0.30;;;6.60;99.90;;;;;;5036972;28;20486;-80
2023/12/13 00:42:49;;;;;;;0.30;0.30;;;6.60;99.90;;;;;;5037716;28;20481;-82
2023/12/13 00:45:16;;;;;;;0.30;0.20;;;6.60;99.90;;;;;;5037358;28;20443;-80
2023/12/13 00:47:43;;;;;;;1.50;0.30;;;6.50;99.90;;;;;;5037324;28;20941;-80
2023/12/13 00:50:10;;;;;;;0.30;0.30;;;6.50;99.90;;;;;;5037337;28;20442;-81
2023/12/13 00:52:38;;;;;;;0.30;0.30;;;6.60;99.90;;;;;;5037331;28;20446;-81
2023/12/13 00:55:06;;;;;;;0.30;0.30;;;6.40;99.90;;;;;;5036932;28;20453;-80
2023/12/13 00:57:32;;;;;;;0.63;0.30;;;6.40;99.90;;;;;;5037561;28;20507;-82
2023/12/13 00:59:59;;;;;;;0.40;0.30;;;6.40;99.90;;;;;;5037412;28;20483;-81
2023/12/13 01:02:27;;;;;;;0.30;0.30;;;6.40;99.90;;;;;;5036521;28;20439;-81
2023/12/13 01:04:54;;;;;;;0.47;0.33;;;6.40;99.90;;;;;;5036075;28;20442;-81
2023/12/13 01:07:21;;;;;;;0.50;0.40;;;6.40;99.90;;;;;;5036186;28;20482;-81
2023/12/13 01:09:49;;;;;;;0.30;0.20;;;6.40;99.90;;;;;;5036504;28;20439;-81
2023/12/13 01:12:16;;;;;;;0.30;0.30;;;6.40;99.90;;;;;;5035447;28;20497;-81
2023/12/13 01:14:43;;;;;;;0.30;0.30;;;6.40;99.90;;;;;;5036346;28;20446;-81
2023/12/13 01:17:10;;;;;;;0.30;0.30;;;6.40;99.90;;;;;;5035887;28;20458;-81
2023/12/13 01:19:37;;;;;;;0.30;0.20;;;6.40;99.90;;;;;;5036240;28;20478;-81
2023/12/13 01:22:04;;;;;;;0.30;0.20;;;6.40;99.90;;;;;;5036192;28;20443;-81
2023/12/13 01:24:31;;;;;;;0.30;0.20;;;6.40;99.90;;;;;;5036126;28;20450;-81
2023/12/13 01:26:59;;;;;;;0.30;0.20;;;6.40;99.90;;;;;;5035973;28;20473;-81
2023/12/13 01:29:25;;;;;;;4.00;0.40;;;6.40;99.90;;;;;;5035930;28;20443;-81
2023/12/13 01:31:52;;;;;;;0.30;0.30;;;6.40;99.90;;;;;;5035659;28;20798;-81
2023/12/13 01:34:19;;;;;;;0.97;0.30;;;6.40;99.90;;;;;;5036050;28;20442;-81
2023/12/13 01:36:45;;;;;;;0.40;0.30;;;6.30;99.90;;;;;;5036114;28;20467;-81
2023/12/13 01:39:13;;;;;;;0.40;0.30;;;6.40;99.90;;;;;;5041409;28;20538;-81
2023/12/13 01:41:41;;;;;;;0.30;0.20;;;6.40;99.90;;;;;;5035832;28;20511;-81
2023/12/13 01:44:09;;;;;;;0.30;0.20;;;6.40;99.90;;;;;;5036124;28;20857;-81
2023/12/13 01:46:37;;;;;;;0.40;0.40;;;6.30;99.90;;;;;;5035367;28;20474;-81
2023/12/13 01:49:06;;;;;;;0.50;0.40;;;6.30;99.90;;;;;;5035340;28;20450;-81
2023/12/13 01:51:33;;;;;;;0.30;0.30;;;6.30;99.90;;;;;;5035228;28;20509;-81
2023/12/13 01:54:01;;;;;;;0.40;0.30;;;6.40;99.90;;;;;;5035392;28;20454;-82
2023/12/13 01:56:28;;;;;;;0.40;0.37;;;6.30;99.90;;;;;;5034652;28;20467;-81
2023/12/13 01:58:55;;;;;;;0.30;0.30;;;6.30;99.90;;;;;;5035112;28;20461;-81
2023/12/13 02:01:23;;;;;;;0.40;0.40;;;6.30;99.90;;;;;;5035619;28;20486;-81
2023/12/13 02:03:50;;;;;;;0.30;0.30;;;6.30;99.90;;;;;;5035054;28;20442;-81
2023/12/13 02:06:17;;;;;;;0.30;0.30;;;6.30;99.90;;;;;;5034797;28;20471;-82
2023/12/13 02:08:44;;;;;;;2.33;0.30;;;6.30;99.90;;;;;;5035150;28;20512;-82
2023/12/13 02:11:10;;;;;;;0.40;0.30;;;6.30;99.90;;;;;;5034944;28;20958;-81
2023/12/13 02:13:37;;;;;;;0.40;0.30;;;6.30;99.90;;;;;;5034888;28;20446;-81
2023/12/13 02:16:05;;;;;;;0.60;0.40;;;6.30;99.90;;;;;;5034843;28;20829;-81
2023/12/13 02:18:33;;;;;;;0.30;0.20;;;6.30;99.90;;;;;;5034889;28;20439;-81
2023/12/13 02:21:00;;;;;;;0.40;0.30;;;6.40;99.90;;;;;;5035230;28;20486;-81
2023/12/13 02:23:28;;;;;;;0.50;0.30;;;6.30;99.90;;;;;;5034472;28;20439;-81
2023/12/13 02:25:59;;;;;;;0.30;0.30;;;6.30;99.90;;;;;;5035051;28;20450;-81
2023/12/13 02:28:26;;;;;;;0.40;0.40;;;6.30;99.90;;;;;;5035844;28;20465;-81
2023/12/13 02:30:55;;;;;;;2.40;0.33;;;6.30;99.90;;;;;;5034859;28;20444;-81
2023/12/13 02:33:24;;;;;;;0.30;0.20;;;6.30;99.90;;;;;;5034839;28;20474;-81
2023/12/13 02:35:51;;;;;;;0.30;0.20;;;6.30;99.90;;;;;;5034713;28;20474;-82
2023/12/13 02:38:18;;;;;;;0.30;0.30;;;6.30;99.90;;;;;;5034910;28;20820;-81
2023/12/13 02:40:46;;;;;;;0.90;0.60;;;6.30;99.90;;;;;;5035212;28;20482;-81
2023/12/13 02:43:13;;;;;;;1.33;0.30;;;6.30;99.90;;;;;;5034778;28;20525;-81
2023/12/13 02:45:40;;;;;;;0.30;0.30;;;6.30;99.90;;;;;;5035106;28;20442;-82
2023/12/13 02:48:06;;;;;;;0.40;0.30;;;6.30;99.90;;;;;;5035966;28;20459;-82
2023/12/13 02:50:36;;;;;;;1.50;0.63;;;6.30;99.90;;;;;;5035428;28;20522;-81
2023/12/13 02:53:03;;;;;;;0.30;0.30;;;6.30;99.90;;;;;;5035456;28;21167;-81
2023/12/13 02:55:30;;;;;;;0.30;0.20;;;6.40;99.90;;;;;;5035331;28;20807;-81
2023/12/13 02:58:00;;;;;;;0.30;0.30;;;6.40;99.90;;;;;;5035029;28;20458;-81
2023/12/13 03:00:27;;;;;;;5.10;0.47;;;6.40;99.90;;;;;;5035550;28;20470;-81
2023/12/13 03:02:53;;;;;;;0.50;0.50;;;6.30;99.90;;;;;;5035456;28;20824;-81
2023/12/13 03:05:20;;;;;;;0.30;0.30;;;6.40;99.90;;;;;;5034972;28;20447;-81
2023/12/13 03:07:47;;;;;;;0.30;0.30;;;6.30;99.90;;;;;;5034511;28;20475;-81
2023/12/13 03:10:13;;;;;;;0.73;0.30;;;6.40;99.90;;;;;;5035007;28;20484;-81
2023/12/13 03:12:40;;;;;;;0.30;0.20;;;6.40;99.90;;;;;;5034996;28;20446;-81
2023/12/13 03:15:09;;;;;;;0.40;0.40;;;6.40;99.90;;;;;;5035014;28;20778;-82
2023/12/13 03:17:36;;;;;;;1.33;0.87;;;6.40;99.90;;;;;;5034501;28;20453;-81
2023/12/13 03:20:03;;;;;;;0.30;0.30;;;6.40;99.90;;;;;;5034783;28;20482;-81
2023/12/13 03:22:30;;;;;;;0.30;0.30;;;6.40;99.90;;;;;;5035353;28;20453;-81
2023/12/13 03:24:57;;;;;;;0.30;0.20;;;6.40;99.90;;;;;;5034860;28;20457;-81
2023/12/13 03:27:24;;;;;;;0.40;0.30;;;6.50;99.90;;;;;;5034614;28;20825;-81
2023/12/13 03:29:51;;;;;;;0.40;0.33;;;6.50;99.90;;;;;;5034770;28;20454;-81
2023/12/13 03:32:19;;;;;;;0.30;0.20;;;6.50;99.90;;;;;;5034721;28;20449;-81
2023/12/13 03:34:45;;;;;;;0.30;0.30;;;6.50;99.90;;;;;;5036045;28;20458;-81
2023/12/13 03:37:14;;;;;;;0.30;0.30;;;6.50;99.90;;;;;;5038316;28;20451;-81
2023/12/13 03:39:40;;;;;;;0.40;0.30;;;6.50;99.90;;;;;;5038221;28;20443;-81
2023/12/13 03:42:07;;;;;;;0.40;0.37;;;6.50;99.90;;;;;;5037793;28;20478;-81
2023/12/13 03:44:34;;;;;;;0.70;0.57;;;6.50;99.90;;;;;;5038072;28;20469;-81
2023/12/13 03:47:01;;;;;;;0.30;0.20;;;6.40;99.90;;;;;;5038191;28;20471;-81
2023/12/13 03:49:29;;;;;;;3.03;0.53;;;6.40;99.90;;;;;;5040791;28;20446;-79
2023/12/13 03:51:55;;;;;;;2.40;0.40;;;6.40;99.90;;;;;;5040501;28;20465;-81
2023/12/13 03:54:22;;;;;;;0.30;0.30;;;6.40;99.90;;;;;;5037731;28;20442;-81
2023/12/13 03:56:49;;;;;;;0.60;0.40;;;6.40;99.90;;;;;;5037797;28;20473;-81
2023/12/13 03:59:15;;;;;;;0.43;0.40;;;6.30;99.90;;;;;;5037480;28;20447;-81
2023/12/13 04:01:42;;;;;;;0.30;0.20;;;6.40;99.90;;;;;;5037488;28;20475;-81
2023/12/13 04:04:09;;;;;;;0.30;0.27;;;6.40;99.90;;;;;;5037600;28;20944;-81
2023/12/13 04:06:37;;;;;;;0.30;0.27;;;6.40;99.90;;;;;;5037037;28;20486;-81
2023/12/13 04:09:04;;;;;;;0.30;0.30;;;6.40;99.90;;;;;;5037258;28;20562;-81
2023/12/13 04:11:30;;;;;;;0.30;0.30;;;6.40;99.90;;;;;;5037814;28;20435;-81
2023/12/13 04:13:57;;;;;;;0.30;0.27;;;6.40;99.90;;;;;;5037048;28;20450;-81
2023/12/13 04:16:24;;;;;;;0.30;0.30;;;6.30;99.90;;;;;;5037294;28;20455;-81
2023/12/13 04:18:50;;;;;;;0.30;0.30;;;6.30;99.90;;;;;;5037435;28;20446;-81
2023/12/13 04:21:17;;;;;;;0.30;0.27;;;6.30;99.90;;;;;;5036916;28;20482;-82
2023/12/13 04:23:45;;;;;;;1.17;0.47;;;6.30;99.90;;;;;;5037227;28;20457;-81
2023/12/13 04:26:12;;;;;;;0.30;0.20;;;6.30;99.90;;;;;;5036713;28;20482;-82
2023/12/13 04:28:38;;;;;;;0.30;0.30;;;6.30;99.90;;;;;;5036940;28;20454;-81
2023/12/13 04:31:06;;;;;;;0.30;0.30;;;6.30;99.90;;;;;;5036917;28;20443;-82
2023/12/13 04:33:33;;;;;;;0.30;0.30;;;6.30;99.90;;;;;;5037076;28;20504;-81
2023/12/13 04:36:00;;;;;;;0.30;0.30;;;6.40;99.90;;;;;;5036536;28;20827;-82
2023/12/13 04:38:27;;;;;;;0.40;0.30;;;6.50;99.90;;;;;;5036874;28;20435;-82
2023/12/13 04:40:55;;;;;;;0.30;0.30;;;6.40;99.90;;;;;;5036637;28;21046;-81
2023/12/13 04:43:22;;;;;;;1.53;0.40;;;6.40;99.90;;;;;;5036946;28;20450;-82
2023/12/13 04:45:49;;;;;;;4.30;0.30;;;6.40;99.90;;;;;;5036857;28;20797;-82
2023/12/13 04:48:15;;;;;;;0.30;0.20;;;6.50;99.90;;;;;;5036958;28;20454;-82
2023/12/13 04:50:42;;;;;;;0.30;0.30;;;6.50;99.90;;;;;;5037007;28;20443;-82
2023/12/13 04:53:09;;;;;;;0.30;0.30;;;6.50;99.90;;;;;;5036947;28;20455;-81
2023/12/13 04:55:35;;;;;;;0.30;0.30;;;6.50;99.90;;;;;;5036487;28;20439;-81
2023/12/13 04:58:04;;;;;;;0.30;0.30;;;6.50;99.90;;;;;;5036621;28;20463;-81
2023/12/13 05:00:31;;;;;;;0.30;0.30;;;6.50;99.90;;;;;;5036939;28;20478;-81
2023/12/13 05:02:58;;;;;;;0.40;0.40;;;6.50;99.90;;;;;;5036448;28;20458;-82
2023/12/13 05:05:24;;;;;;;0.30;0.30;;;6.50;99.90;;;;;;5036178;28;20802;-81
2023/12/13 05:07:51;;;;;;;0.40;0.40;;;6.50;99.90;;;;;;5035955;28;20478;-82
2023/12/13 05:10:18;;;;;;;0.30;0.30;;;6.50;99.90;;;;;;5038659;28;20453;-81
2023/12/13 05:12:45;;;;;;;0.30;0.20;;;6.50;99.90;;;;;;5036127;28;20946;-82
2023/12/13 05:15:13;;;;;;;0.30;0.30;;;6.60;99.90;;;;;;5035979;28;20450;-81
2023/12/13 05:17:39;;;;;;;1.13;0.40;;;6.60;99.90;;;;;;5035887;28;20463;-82
2023/12/13 05:20:08;;;;;;;0.30;0.30;;;6.60;99.90;;;;;;5035612;28;20446;-82
2023/12/13 05:22:35;;;;;;;0.30;0.30;;;6.60;99.90;;;;;;5035458;28;20485;-81
2023/12/13 05:25:02;;;;;;;0.93;0.37;;;6.60;99.90;;;;;;5035873;28;20447;-81
2023/12/13 05:27:29;;;;;;;0.30;0.30;;;6.70;99.90;;;;;;5035866;28;20475;-82
2023/12/13 05:29:55;;;;;;;0.30;0.23;;;6.70;99.90;;;;;;5035359;28;20442;-82
2023/12/13 05:32:24;;;;;;;0.40;0.30;;;6.70;99.90;;;;;;5035466;28;20443;-82
2023/12/13 05:34:50;;;;;;;0.30;0.20;;;6.70;99.90;;;;;;5035197;28;20439;-82
2023/12/13 05:37:17;;;;;;;0.30;0.27;;;6.70;99.90;;;;;;5035337;28;20466;-81
2023/12/13 05:39:44;;;;;;;0.30;0.20;;;6.70;99.90;;;;;;5035643;28;20847;-82
2023/12/13 05:42:10;;;;;;;0.43;0.30;;;6.70;99.90;;;;;;5037759;28;20478;-81
2023/12/13 05:44:38;;;;;;;0.30;0.30;;;6.70;99.90;;;;;;5037679;28;20542;-81
2023/12/13 05:47:05;;;;;;;0.30;0.20;;;6.70;99.90;;;;;;5038546;28;20467;-80
2023/12/13 05:49:33;;;;;;;0.30;0.30;;;6.70;99.90;;;;;;5039091;28;20446;-81
2023/12/13 05:51:59;;;;;;;0.67;0.40;;;6.60;99.90;;;;;;5036463;28;20447;-81
2023/12/13 05:54:26;;;;;;;0.50;0.40;;;6.60;99.90;;;;;;5036995;28;20446;-81
2023/12/13 05:56:53;;;;;;;0.40;0.30;;;6.60;99.90;;;;;;5037383;28;20481;-80
2023/12/13 05:59:19;;;;;;;0.40;0.30;;;6.60;99.90;;;;;;5041916;28;20457;-80
2023/12/13 06:01:46;;;;;;;1.50;0.40;;;6.60;99.90;;;;;;5038279;28;20569;-81
2023/12/13 06:04:13;;;;;;;0.50;0.30;;;6.60;99.90;;;;;;5036666;28;20442;-81
2023/12/13 06:06:45;;;;;;;0.30;0.23;;;6.50;99.90;;;;;;5035798;28;20995;-82
2023/12/13 06:09:12;;;;;;;0.30;0.30;;;6.60;99.90;;;;;;5035582;28;20481;-81
2023/12/13 06:11:38;;;;;;;0.30;0.20;;;6.50;99.90;;;;;;5034984;28;20940;-81
2023/12/13 06:14:05;;;;;;;0.40;0.30;;;6.60;99.90;;;;;;5035353;28;20435;-81
2023/12/13 06:16:32;;;;;;;0.30;0.20;;;6.60;99.90;;;;;;5036046;28;20477;-82
2023/12/13 06:18:58;;;;;;;0.30;0.30;;;6.60;99.90;;;;;;5035285;28;20793;-82
2023/12/13 06:21:25;;;;;;;0.50;0.40;;;6.70;99.90;;;;;;5035108;28;20491;-82
2023/12/13 06:23:53;;;;;;;1.23;0.50;;;6.70;99.90;;;;;;5034796;28;20974;-82
2023/12/13 06:26:20;;;;;;;0.30;0.20;;;6.70;99.90;;;;;;5034901;28;20467;-81
2023/12/13 06:28:46;;;;;;;0.40;0.30;;;6.70;99.90;;;;;;5034531;28;20434;-82
2023/12/13 06:31:13;;;;;;;1.50;0.73;;;6.80;99.90;;;;;;5034945;28;20434;-82
2023/12/13 06:33:40;;;;;;;0.37;0.37;;;6.70;99.90;;;;;;5035165;28;20449;-82
2023/12/13 06:36:07;;;;;;;0.30;0.30;;;6.70;99.90;;;;;;5035097;28;20454;-82
2023/12/13 06:38:34;;;;;;;0.30;0.30;;;6.80;99.90;;;;;;5034992;28;20979;-82
2023/12/13 06:41:02;;;;;;;0.40;0.30;;;6.80;99.90;;;;;;5034902;28;20457;-82
2023/12/13 06:43:29;;;;;;;0.40;0.30;;;6.80;99.90;;;;;;5034787;28;20450;-81
2023/12/13 06:45:56;;;;;;;0.70;0.43;;;6.80;99.90;;;;;;5034330;28;21030;-82
2023/12/13 06:48:23;;;;;;;0.40;0.30;;;6.80;99.90;;;;;;5034852;28;20496;-82
2023/12/13 06:50:49;;;;;;;0.30;0.30;;;6.80;99.90;;;;;;5034469;28;20431;-81
2023/12/13 06:53:16;;;;;;;0.40;0.40;;;6.80;99.90;;;;;;5034942;28;20453;-81
2023/12/13 06:55:43;;;;;;;0.37;0.30;;;6.80;99.90;;;;;;5034726;28;20445;-81
2023/12/13 06:58:11;;;;;;;0.30;0.30;;;6.80;99.90;;;;;;5034750;28;20470;-81
2023/12/13 07:00:38;;;;;;;0.40;0.30;;;6.70;99.90;;;;;;5035473;28;20442;-81
2023/12/13 07:03:05;;;;;;;0.30;0.30;;;6.80;99.90;;;;;;5034818;28;20490;-82
2023/12/13 07:05:31;;;;;;;2.33;0.30;;;6.80;99.90;;;;;;5034534;28;20450;-82
2023/12/13 07:07:58;;;;;;;0.30;0.30;;;6.70;99.90;;;;;;5034017;28;20542;-82
2023/12/13 07:10:26;;;;;;;0.30;0.30;;;6.70;99.90;;;;;;5037097;28;20458;-82
2023/12/13 07:12:53;;;;;;;0.50;0.50;;;6.80;99.90;;;;;;5038115;28;20530;-81
2023/12/13 07:15:21;;;;;;;0.30;0.30;;;6.80;99.90;;;;;;5037906;28;20446;-81
2023/12/13 07:17:48;;;;;;;4.93;0.47;;;6.80;99.90;;;;;;5039238;28;20459;-81
2023/12/13 07:20:17;;;;;;;0.60;0.60;;;6.80;99.90;;;;;;5038978;28;20454;-81
2023/12/13 07:22:43;;;;;;;0.60;0.40;;;6.80;99.90;;;;;;5038067;28;20470;-82
2023/12/13 07:25:11;;;;;;;0.30;0.30;;;6.90;99.90;;;;;;5038198;28;20818;-82
2023/12/13 07:27:37;;;;;;;2.40;0.40;;;6.80;99.90;;;;;;5037991;28;20454;-82
2023/12/13 07:30:05;;;;;;;0.30;0.30;;;6.80;99.90;;;;;;5037895;28;20473;-81
2023/12/13 07:32:34;;;;;;;0.30;0.30;;;6.80;99.90;;;;;;5037590;28;20966;-82
2023/12/13 07:35:00;;;;;;;0.30;0.30;;;6.80;99.90;;;;;;5037479;28;20465;-82
2023/12/13 07:37:28;;;;;;;1.43;0.80;;;6.80;99.90;;;;;;5037935;28;20474;-81
2023/12/13 07:39:54;;;;;;;0.30;0.20;;;6.80;99.90;;;;;;5038110;28;20450;-81
2023/12/13 07:42:21;;;;;;;0.40;0.30;;;6.80;99.90;;;;;;5037961;28;20475;-81
2023/12/13 07:44:48;;;;;;;0.30;0.30;;;6.80;99.90;;;;;;5037915;28;20442;-82
2023/12/13 07:47:14;;;;;;;0.37;0.30;;;6.90;99.90;;;;;;5037830;28;20523;-82
2023/12/13 07:49:42;;;;;;;0.30;0.30;;;6.80;99.90;;;;;;5037606;28;20449;-82
2023/12/13 07:52:09;;;;;;;0.50;0.40;;;6.80;99.90;;;;;;5037371;28;20534;-82
2023/12/13 07:54:36;;;;;;;0.30;0.30;;;6.80;99.90;;;;;;5037325;28;20446;-81
2023/12/13 07:57:03;;;;;;;0.40;0.30;;;6.80;99.90;;;;;;5037077;28;20478;-82
2023/12/13 07:59:30;;;;;;;0.50;0.30;;;6.80;99.90;;;;;;5037083;28;20446;-82
2023/12/13 08:01:57;;;;;;;0.50;0.30;;;6.80;99.90;;;;;;5036885;28;20482;-82
2023/12/13 08:04:24;;;;;;;0.40;0.40;;;6.80;99.90;;;;;;5036938;28;20458;-82
2023/12/13 08:06:52;;;;;;;0.40;0.30;;;6.90;99.90;;;;;;5036737;28;20553;-81
2023/12/13 08:09:19;;;;;;;0.30;0.30;;;6.90;99.90;;;;;;5047531;28;20446;-79
2023/12/13 08:11:47;;;;;;;0.30;0.30;;;6.90;99.90;;;;;;5037045;28;20434;-81
2023/12/13 08:14:14;;;;;;;1.03;0.43;;;6.90;99.90;;;;;;5036844;28;20443;-82
2023/12/13 08:16:41;;;;;;;1.43;0.50;;;6.90;99.90;;;;;;5036471;28;20880;-82
2023/12/13 08:19:08;;;;;;;0.50;0.30;;;6.90;99.90;;;;;;5036626;28;20455;-82
2023/12/13 08:21:40;;;;;;;0.30;0.20;;;6.90;99.90;;;;;;5036642;28;20769;-82
2023/12/13 08:24:08;;;;;;;0.30;0.30;;;6.90;99.90;;;;;;5036900;28;20916;-82
2023/12/13 08:26:35;;;;;;;0.40;0.30;;;7.00;99.90;;;;;;5037319;28;20459;-82
2023/12/13 08:29:03;;;;;;;0.30;0.30;;;7.00;99.90;;;;;;5037234;28;20454;-81
2023/12/13 08:31:30;;;;;;;0.40;0.30;;;7.00;99.90;;;;;;5037880;28;20447;-82
2023/12/13 08:33:57;;;;;;;0.33;0.30;;;7.00;99.90;;;;;;5037066;28;20801;-82
2023/12/13 08:36:24;;;;;;;1.17;0.40;;;7.00;99.90;;;;;;5036567;28;20478;-82
2023/12/13 08:38:51;;;;;;;0.37;0.30;;;7.10;99.90;;;;;;5036422;28;20931;-82
2023/12/13 08:41:19;;;;;;;0.30;0.30;;;7.10;99.90;;;;;;5036977;28;20489;-82
2023/12/13 08:43:45;;;;;;;0.33;0.33;;;7.00;99.90;;;;;;5036417;28;20485;-82
2023/12/13 08:46:12;;;;;;;0.50;0.30;;;7.10;99.90;;;;;;5037844;28;20486;-81
2023/12/13 08:48:39;;;;;;;0.80;0.30;;;7.10;99.90;;;;;;5038406;28;20443;-83
2023/12/13 08:51:06;;;;;;;0.30;0.30;;;7.10;99.90;;;;;;5036277;28;20446;-81
2023/12/13 08:53:33;;;;;;;0.30;0.30;;;7.20;99.90;;;;;;5037719;28;20822;-81
2023/12/13 08:56:00;;;;;;;2.23;0.50;;;7.30;99.90;;;;;;5036668;28;20434;-80
2023/12/13 08:58:28;;;;;;;0.30;0.30;;;7.50;99.90;;;;;;5037160;28;20447;-82
2023/12/13 09:00:55;;;;;;;0.40;0.30;;;7.50;99.90;;;;;;5036541;28;20439;-82
2023/12/13 09:03:21;;;;;;;0.30;0.30;;;7.50;99.90;;;;;;5036269;28;20478;-82
2023/12/13 09:05:48;;;;;;;0.40;0.30;;;7.60;99.90;;;;;;5036297;28;20817;-82
2023/12/13 09:08:15;;;;;;;0.40;0.30;;;7.60;99.90;;;;;;5035893;28;21015;-82
2023/12/13 09:10:42;;;;;;;0.60;0.40;;;7.70;99.90;;;;;;5036021;28;20451;-82
2023/12/13 09:13:09;;;;;;;1.77;0.40;;;7.80;99.90;;;;;;5036144;28;20435;-82
2023/12/13 09:15:37;;;;;;;0.40;0.37;;;7.90;99.90;;;;;;5035618;28;20447;-81
2023/12/13 09:18:04;;;;;;;0.40;0.40;;;8.00;99.90;;;;;;5035493;28;20470;-82
2023/12/13 09:20:30;;;;;;;0.40;0.40;;;8.00;99.90;;;;;;5035451;28;20454;-81
2023/12/13 09:22:57;;;;;;;0.30;0.30;;;8.10;99.90;;;;;;5035667;28;20486;-82
2023/12/13 09:25:25;;;;;;;0.60;0.50;;;8.20;99.90;;;;;;5035663;28;20458;-81
2023/12/13 09:27:52;;;;;;;0.40;0.40;;;8.20;99.90;;;;;;5035468;28;20477;-81
2023/12/13 09:30:18;;;;;;;0.40;0.33;;;8.20;99.90;;;;;;5035608;28;20447;-82
2023/12/13 09:32:47;;;;;;;0.50;0.50;;;8.20;99.90;;;;;;5034892;28;20442;-82
2023/12/13 09:35:14;;;;;;;0.50;0.30;;;8.20;99.90;;;;;;5036426;28;20478;-80
2023/12/13 09:37:41;;;;;;;0.60;0.60;;;8.20;99.90;;;;;;5035945;28;20469;-81
2023/12/13 09:40:14;;;;;;;0.40;0.40;;;8.10;99.90;;;;;;5035837;28;20462;-81
2023/12/13 09:42:45;;;;;;;0.33;0.30;;;8.10;99.90;;;;;;5035491;28;20470;-81
2023/12/13 09:45:16;;;;;;;0.40;0.30;;;8.10;99.90;;;;;;5035099;28;20438;-81
2023/12/13 09:47:43;;;;;;;0.30;0.30;;;8.00;99.90;;;;;;5035050;28;20467;-81
2023/12/13 09:50:12;;;;;;;0.40;0.40;;;8.00;99.90;;;;;;5035114;28;20450;-82
2023/12/13 09:52:39;;;;;;;0.40;0.40;;;7.90;99.90;;;;;;5035214;28;20430;-81
2023/12/13 09:55:08;;;;;;;1.00;0.53;;;7.80;99.90;;;;;;5035174;28;20447;-82
2023/12/13 09:57:35;;;;;;;0.40;0.30;;;7.80;99.90;;;;;;5034535;28;20462;-82
2023/12/13 10:00:01;;;;;;;1.03;0.47;;;7.80;99.90;;;;;;5034574;28;20450;-82
2023/12/13 10:02:28;;;;;;;0.30;0.30;;;7.70;99.90;;;;;;5035115;28;20478;-82
2023/12/13 10:04:59;;;;;;;0.63;0.50;;;7.70;99.90;;;;;;5034848;28;20469;-83
2023/12/13 10:07:28;;;;;;;0.90;0.47;;;7.70;99.90;;;;;;5034527;28;20564;-82
2023/12/13 10:09:56;;;;;;;0.67;0.30;;;7.70;99.90;;;;;;5035127;28;20811;-82
2023/12/13 10:12:23;;;;;;;0.50;0.30;;;7.70;99.90;;;;;;5035136;28;20489;-81
2023/12/13 10:14:50;;;;;;;0.40;0.30;;;7.70;99.90;;;;;;5034542;28;20458;-82
2023/12/13 10:17:20;;;;;;;0.83;0.47;;;7.70;99.90;;;;;;5034489;28;20466;-82
2023/12/13 10:19:47;;;;;;;0.50;0.50;;;7.70;99.90;;;;;;5046335;28;20427;-80
2023/12/13 10:22:14;;;;;;;0.80;0.50;;;7.70;99.90;;;;;;5033916;28;20483;-81
2023/12/13 10:24:42;;;;;;;0.40;0.40;;;7.80;99.90;;;;;;5033957;28;20438;-82
2023/12/13 10:27:09;;;;;;;0.40;0.40;;;7.80;99.90;;;;;;5034293;28;20450;-81
2023/12/13 10:29:36;;;;;;;0.40;0.40;;;7.90;99.90;;;;;;5034987;28;20953;-81
2023/12/13 10:32:03;;;;;;;1.23;0.50;;;8.10;99.90;;;;;;5036198;28;20430;-81
2023/12/13 10:34:30;;;;;;;0.53;0.40;;;8.30;99.90;;;;;;5034923;28;20493;-82
2023/12/13 10:36:59;;;;;;;0.50;0.43;;;8.40;99.90;;;;;;5034572;28;20466;-82
2023/12/13 10:39:26;;;;;;;0.30;0.30;;;8.50;99.90;;;;;;5034667;28;20442;-81
2023/12/13 10:41:56;;;;;;;0.80;0.50;;;8.50;99.90;;;;;;5035717;28;20947;-82
2023/12/13 10:44:23;;;;;;;0.57;0.50;;;8.50;99.90;;;;;;5039547;28;20863;-81
2023/12/13 10:46:56;;;;;;;0.70;0.40;;;8.40;99.90;;;;;;5040732;28;20469;-80
2023/12/13 10:49:23;;;;;;;1.17;0.40;;;8.50;99.90;;;;;;5041073;28;20442;-80
2023/12/13 10:51:51;;;;;;;0.73;0.60;;;8.40;99.90;;;;;;5040894;28;20427;-80
2023/12/13 10:54:19;;;;;;;0.30;0.30;;;8.50;99.90;;;;;;5041333;28;20431;-80
2023/12/13 10:56:46;;;;;;;0.47;0.47;;;8.50;99.90;;;;;;5041078;28;20473;-80
2023/12/13 10:59:16;;;;;;;1.33;0.50;;;8.40;99.90;;;;;;5041277;28;20804;-80
2023/12/13 11:01:45;;;;;;;0.80;0.50;;;8.40;99.90;;;;;;5041270;28;20926;-80
2023/12/13 11:04:16;;;;;;;0.43;0.43;;;8.30;99.90;;;;;;5041069;28;20558;-80
2023/12/13 11:06:45;;;;;;;0.37;0.33;;;8.30;99.90;;;;;;5040242;28;20593;-80
2023/12/13 11:09:14;;;;;;;0.60;0.33;;;8.30;99.90;;;;;;5040867;28;20477;-80
2023/12/13 11:11:42;;;;;;;0.40;0.30;;;8.40;99.90;;;;;;5040556;28;20447;-80
2023/12/13 11:14:09;;;;;;;1.30;0.50;;;8.50;99.90;;;;;;5041251;28;20442;-80
2023/12/13 11:16:42;;;;;;;0.50;0.50;;;8.70;99.90;;;;;;5040735;28;20467;-80
2023/12/13 11:19:12;;;;;;;0.53;0.50;;;8.80;99.90;;;;;;5040685;28;20430;-80
2023/12/13 11:21:41;;;;;;;0.30;0.30;;;8.90;99.90;;;;;;5040613;28;20419;-80
2023/12/13 11:24:12;;;;;;;0.40;0.33;;;8.80;99.90;;;;;;5040340;28;20470;-80
2023/12/13 11:26:42;;;;;;;0.47;0.40;;;8.70;99.90;;;;;;5040724;28;20566;-80
2023/12/13 11:29:14;;;;;;;0.70;0.60;;;8.70;99.90;;;;;;5040475;28;20442;-80
2023/12/13 11:31:51;;;;;;;0.70;0.30;;;8.80;99.90;;;;;;5040587;28;20421;-79
2023/12/13 11:34:18;;;;;;;0.40;0.40;;;8.80;99.90;;;;;;5040293;28;20422;-80
2023/12/13 11:36:46;;;;;;;0.30;0.30;;;8.90;99.90;;;;;;5040091;28;20979;-79
2023/12/13 11:39:13;;;;;;;0.40;0.30;;;9.00;99.90;;;;;;5040597;28;20454;-80
2023/12/13 11:41:40;;;;;;;0.60;0.50;;;9.10;99.90;;;;;;5040496;28;20442;-80
2023/12/13 11:44:07;;;;;;;0.50;0.30;;;9.10;99.90;;;;;;5040737;28;20474;-80
2023/12/13 11:46:34;;;;;;;0.40;0.40;;;9.20;99.90;;;;;;5040491;28;20474;-80
2023/12/13 11:49:02;;;;;;;0.33;0.30;;;9.10;99.90;;;;;;5040411;28;20450;-80
2023/12/13 11:51:29;;;;;;;0.40;0.40;;;9.10;99.90;;;;;;5040560;28;20438;-80
2023/12/13 11:53:55;;;;;;;0.40;0.40;;;9.20;99.90;;;;;;5040885;28;20446;-80
2023/12/13 11:56:22;;;;;;;0.57;0.37;;;9.30;99.90;;;;;;5036888;28;20463;-80
2023/12/13 11:58:50;;;;;;;0.60;0.50;;;9.30;99.90;;;;;;5036991;28;20478;-79
2023/12/13 12:01:19;;;;;;;0.30;0.30;;;9.30;99.90;;;;;;5037054;28;21013;-80
2023/12/13 12:03:46;;;;;;;1.80;1.00;;;9.20;99.90;;;;;;5037330;28;20524;-80
2023/12/13 12:06:19;;;;;;;1.63;0.70;;;9.20;99.90;;;;;;5036568;28;20508;-80
2023/12/13 12:08:46;;;;;;;0.40;0.40;;;9.20;99.90;;;;;;5037754;28;20442;-80
2023/12/13 12:11:13;;;;;;;0.57;0.40;;;9.20;99.90;;;;;;5036856;28;20947;-80
2023/12/13 12:13:42;;;;;;;0.93;0.50;;;9.30;99.90;;;;;;5036864;28;20443;-79
2023/12/13 12:16:10;;;;;;;0.40;0.33;;;9.20;99.90;;;;;;5036929;28;20455;-80
2023/12/13 12:18:38;;;;;;;0.43;0.40;;;9.20;99.90;;;;;;5037075;28;20450;-80
2023/12/13 12:21:07;;;;;;;0.40;0.40;;;9.10;99.90;;;;;;5037029;28;20524;-80
2023/12/13 12:23:36;;;;;;;0.40;0.30;;;9.10;99.90;;;;;;5036489;28;20486;-81
2023/12/13 12:26:07;;;;;;;0.30;0.30;;;9.10;99.90;;;;;;5036176;28;20459;-80
2023/12/13 12:28:34;;;;;;;0.53;0.30;;;9.00;99.90;;;;;;5037631;28;20450;-79
2023/12/13 12:31:01;;;;;;;0.40;0.33;;;9.10;99.90;;;;;;5048052;28;20459;-80
2023/12/13 12:33:28;;;;;;;0.40;0.40;;;9.10;99.90;;;;;;5036662;28;20826;-80
2023/12/13 12:35:55;;;;;;;0.50;0.40;;;9.10;99.90;;;;;;5036493;28;20450;-80
2023/12/13 12:38:22;;;;;;;0.40;0.30;;;9.20;99.90;;;;;;5036187;28;20450;-80
2023/12/13 12:40:50;;;;;;;0.30;0.30;;;9.20;99.90;;;;;;5036285;28;20966;-81
2023/12/13 12:43:19;;;;;;;1.90;0.60;;;9.10;99.90;;;;;;5037005;28;20478;-80
2023/12/13 12:45:46;;;;;;;1.23;0.37;;;9.20;99.90;;;;;;5036298;28;20443;-80
2023/12/13 12:48:13;;;;;;;0.30;0.30;;;9.10;99.90;;;;;;5036012;28;20516;-80
2023/12/13 12:50:40;;;;;;;0.40;0.30;;;9.10;99.90;;;;;;5036149;28;20458;-80
2023/12/13 12:53:07;;;;;;;1.33;0.30;;;9.10;99.90;;;;;;5036787;28;20473;-80
2023/12/13 12:55:34;;;;;;;0.30;0.30;;;9.00;99.90;;;;;;5036524;28;20451;-81
2023/12/13 12:58:02;;;;;;;0.30;0.30;;;8.90;99.90;;;;;;5036644;28;20470;-78